sensor_id;sensor_type;location;lat;lon;timestamp;pressure;altitude;pressure_sealevel;temperature;humidity
76687;BME280;65615;47.378;19.344;2024-01-30T05:24:14;102547.16;;;-2.98;100.00
76687;BME280;65615;47.378;19.344;2024-01-30T05:28:17;102547.16;;;-2.98;100.00
76687;BME280;65615;47.378;19.344;2024-01-30T05:32:20;102557.94;;;-3.43;100.00
76687;BME280;65615;47.378;19.344;2024-01-30T05:36:23;102558.59;;;-3.20;100.00
76687;BME280;65615;47.378;19.344;2024-01-30T05:40:26;102556.06;;;-3.26;100.00
76687;BME280;65615;47.378;19.344;2024-01-30T05:44:30;102565.53;;;-3.26;100.00
76687;BME280;65615;47.378;19.344;2024-01-30T05:48:33;102566.41;;;-3.27;100.00
76687;BME280;65615;47.378;19.344;2024-01-30T05:52:38;102569.06;;;-3.36;100.00
76687;BME280;65615;47.378;19.344;2024-01-30T05:56:41;102571.72;;;-3.41;100.00
76687;BME280;65615;47.378;19.344;2024-01-30T06:00:44;102580.34;;;-3.45;100.00
76687;BME280;65615;47.378;19.344;2024-01-30T06:04:47;102579.50;;;-3.49;100.00
76687;BME280;65615;47.378;19.344;2024-01-30T06:08:51;102581.31;;;-3.60;100.00
76687;BME280;65615;47.378;19.344;2024-01-30T06:12:54;102588.19;;;-3.56;100.00
76687;BME280;65615;47.378;19.344;2024-01-30T06:16:57;102586.44;;;-3.57;100.00
76687;BME280;65615;47.378;19.344;2024-01-30T06:21:00;102587.31;;;-3.56;100.00
76687;BME280;65615;47.378;19.344;2024-01-30T06:25:03;102589.97;;;-3.64;100.00
76687;BME280;65615;47.378;19.344;2024-01-30T06:29:07;102594.22;;;-3.60;100.00
76687;BME280;65615;47.378;19.344;2024-01-30T06:33:12;102599.41;;;-3.60;100.00
76687;BME280;65615;47.378;19.344;2024-01-30T06:37:16;102595.06;;;-3.53;100.00
76687;BME280;65615;47.378;19.344;2024-01-30T06:41:19;102592.47;;;-3.56;100.00
76687;BME280;65615;47.378;19.344;2024-01-30T06:45:23;102596.56;;;-3.29;100.00
76687;BME280;65615;47.378;19.344;2024-01-30T06:49:26;102590.34;;;-3.07;100.00
76687;BME280;65615;47.378;19.344;2024-01-30T06:53:30;102598.06;;;-3.04;100.00
76687;BME280;65615;47.378;19.344;2024-01-30T06:57:32;102595.47;;;-3.04;100.00
76687;BME280;65615;47.378;19.344;2024-01-30T07:01:36;102590.91;;;-2.78;100.00
76687;BME280;65615;47.378;19.344;2024-01-30T07:05:38;102596.09;;;-2.77;100.00
76687;BME280;65615;47.378;19.344;2024-01-30T07:09:42;102599.44;;;-2.67;100.00
76687;BME280;65615;47.378;19.344;2024-01-30T07:13:45;102593.41;;;-2.69;100.00
76687;BME280;65615;47.378;19.344;2024-01-30T07:17:48;102604.41;;;-2.49;100.00
76687;BME280;65615;47.378;19.344;2024-01-30T07:21:51;102601.66;;;-2.38;100.00
76687;BME280;65615;47.378;19.344;2024-01-30T07:25:54;102614.38;;;-2.17;100.00
76687;BME280;65615;47.378;19.344;2024-01-30T07:29:57;102612.47;;;-2.05;100.00
76687;BME280;65615;47.378;19.344;2024-01-30T07:34:00;102606.81;;;-1.72;100.00
76687;BME280;65615;47.378;19.344;2024-01-30T07:38:03;102608.41;;;-1.61;100.00
76687;BME280;65615;47.378;19.344;2024-01-30T07:42:06;102610.69;;;-1.42;100.00
76687;BME280;65615;47.378;19.344;2024-01-30T07:46:09;102609.53;;;-1.24;100.00
76687;BME280;65615;47.378;19.344;2024-01-30T07:50:13;102609.06;;;-0.97;100.00
76687;BME280;65615;47.378;19.344;2024-01-30T07:54:16;102597.94;;;-0.58;100.00
76687;BME280;65615;47.378;19.344;2024-01-30T07:58:19;102595.44;;;-0.20;100.00
76687;BME280;65615;47.378;19.344;2024-01-30T08:02:22;102598.16;;;0.16;100.00
76687;BME280;65615;47.378;19.344;2024-01-30T08:06:25;102596.28;;;0.59;100.00
76687;BME280;65615;47.378;19.344;2024-01-30T08:10:28;102591.28;;;0.85;100.00
76687;BME280;65615;47.378;19.344;2024-01-30T08:14:32;102597.09;;;1.28;100.00
76687;BME280;65615;47.378;19.344;2024-01-30T08:18:35;102596.41;;;1.52;100.00
76687;BME280;65615;47.378;19.344;2024-01-30T08:22:39;102600.56;;;1.89;100.00
76687;BME280;65615;47.378;19.344;2024-01-30T08:26:43;102606.22;;;2.32;100.00
76687;BME280;65615;47.378;19.344;2024-01-30T08:30:46;102597.34;;;2.37;100.00
76687;BME280;65615;47.378;19.344;2024-01-30T08:34:49;102599.56;;;2.49;100.00
76687;BME280;65615;47.378;19.344;2024-01-30T08:38:53;102602.47;;;2.67;100.00
76687;BME280;65615;47.378;19.344;2024-01-30T08:43:01;102608.81;;;2.86;100.00
76687;BME280;65615;47.378;19.344;2024-01-30T08:47:12;102610.97;;;2.99;100.00
76687;BME280;65615;47.378;19.344;2024-01-30T08:51:20;102613.63;;;2.98;100.00
76687;BME280;65615;47.378;19.344;2024-01-30T08:55:30;102610.25;;;3.20;100.00
76687;BME280;65615;47.378;19.344;2024-01-30T08:59:47;102616.09;;;3.52;100.00
76687;BME280;65615;47.378;19.344;2024-01-30T09:03:51;102612.94;;;3.67;100.00
76687;BME280;65615;47.378;19.344;2024-01-30T09:07:56;102615.47;;;3.91;100.00
76687;BME280;65615;47.378;19.344;2024-01-30T09:12:00;102604.53;;;3.82;100.00
76687;BME280;65615;47.378;19.344;2024-01-30T09:16:09;102610.13;;;4.17;100.00
76687;BME280;65615;47.378;19.344;2024-01-30T09:20:22;102604.72;;;4.22;100.00
76687;BME280;65615;47.378;19.344;2024-01-30T09:24:26;102601.78;;;4.51;100.00
76687;BME280;65615;47.378;19.344;2024-01-30T09:28:33;102604.78;;;4.42;100.00
76687;BME280;65615;47.378;19.344;2024-01-30T09:32:55;102603.97;;;4.83;100.00
76687;BME280;65615;47.378;19.344;2024-01-30T09:37:04;102603.06;;;5.45;100.00
76687;BME280;65615;47.378;19.344;2024-01-30T09:41:12;102599.91;;;5.75;100.00
76687;BME280;65615;47.378;19.344;2024-01-30T09:45:24;102605.72;;;6.02;100.00
76687;BME280;65615;47.378;19.344;2024-01-30T09:49:28;102595.84;;;6.61;100.00
76687;BME280;65615;47.378;19.344;2024-01-30T09:53:33;102601.91;;;6.80;100.00
76687;BME280;65615;47.378;19.344;2024-01-30T09:58:09;102591.84;;;7.40;100.00
76687;BME280;65615;47.378;19.344;2024-01-30T10:02:22;102596.78;;;7.46;100.00
76687;BME280;65615;47.378;19.344;2024-01-30T10:06:27;102592.25;;;8.44;100.00
76687;BME280;65615;47.378;19.344;2024-01-30T10:10:35;102602.63;;;8.93;100.00
76687;BME280;65615;47.378;19.344;2024-01-30T10:14:59;102598.38;;;9.34;100.00
76687;BME280;65615;47.378;19.344;2024-01-30T10:19:13;102604.06;;;9.70;97.50
76687;BME280;65615;47.378;19.344;2024-01-30T10:23:22;102601.72;;;9.08;97.94
76687;BME280;65615;47.378;19.344;2024-01-30T10:27:31;102602.56;;;9.80;95.49
76687;BME280;65615;47.378;19.344;2024-01-30T10:32:04;102599.31;;;10.32;91.57
76687;BME280;65615;47.378;19.344;2024-01-30T10:36:43;102589.63;;;10.98;83.78
76687;BME280;65615;47.378;19.344;2024-01-30T10:41:00;102580.97;;;11.46;82.64
76687;BME280;65615;47.378;19.344;2024-01-30T10:45:11;102577.97;;;11.00;85.72
76687;BME280;65615;47.378;19.344;2024-01-30T10:49:27;102575.91;;;10.40;84.01
76687;BME280;65615;47.378;19.344;2024-01-30T10:53:36;102566.78;;;11.47;82.46
76687;BME280;65615;47.378;19.344;2024-01-30T10:57:51;102566.00;;;11.95;78.67
76687;BME280;65615;47.378;19.344;2024-01-30T11:02:01;102570.41;;;11.46;78.68
76687;BME280;65615;47.378;19.344;2024-01-30T11:06:11;102550.25;;;11.81;76.30
76687;BME280;65615;47.378;19.344;2024-01-30T11:10:25;102546.88;;;11.54;77.57
76687;BME280;65615;47.378;19.344;2024-01-30T11:14:32;102548.41;;;10.01;84.66
76687;BME280;65615;47.378;19.344;2024-01-30T11:18:40;102532.88;;;12.14;75.19
76687;BME280;65615;47.378;19.344;2024-01-30T11:22:52;102529.94;;;13.55;69.44
76687;BME280;65615;47.378;19.344;2024-01-30T11:26:58;102526.38;;;11.20;77.79
76687;BME280;65615;47.378;19.344;2024-01-30T11:31:19;102517.94;;;12.13;69.26
76687;BME280;65615;47.378;19.344;2024-01-30T11:35:23;102519.78;;;13.27;70.50
76687;BME280;65615;47.378;19.344;2024-01-30T11:39:29;102522.19;;;13.19;63.98
76687;BME280;65615;47.378;19.344;2024-01-30T11:43:57;102513.34;;;14.50;58.48
76687;BME280;65615;47.378;19.344;2024-01-30T11:48:22;102509.19;;;13.49;62.91
76687;BME280;65615;47.378;19.344;2024-01-30T11:52:34;102492.47;;;14.03;61.86
76687;BME280;65615;47.378;19.344;2024-01-30T11:56:45;102494.56;;;14.20;60.30
76687;BME280;65615;47.378;19.344;2024-01-30T12:00:55;102474.91;;;14.43;56.92
76687;BME280;65615;47.378;19.344;2024-01-30T12:05:09;102482.47;;;14.79;55.61
76687;BME280;65615;47.378;19.344;2024-01-30T12:09:18;102468.38;;;14.47;56.55
76687;BME280;65615;47.378;19.344;2024-01-30T12:13:23;102466.34;;;15.01;54.53
76687;BME280;65615;47.378;19.344;2024-01-30T12:17:37;102465.00;;;15.07;49.54
76687;BME280;65615;47.378;19.344;2024-01-30T12:21:44;102449.34;;;16.31;48.98
76687;BME280;65615;47.378;19.344;2024-01-30T12:25:49;102446.50;;;15.85;49.14
76687;BME280;65615;47.378;19.344;2024-01-30T12:29:57;102448.25;;;15.25;51.08
76687;BME280;65615;47.378;19.344;2024-01-30T12:34:00;102442.34;;;16.49;48.33
76687;BME280;65615;47.378;19.344;2024-01-30T12:38:05;102435.16;;;17.06;47.24
76687;BME280;65615;47.378;19.344;2024-01-30T12:42:16;102433.03;;;16.05;47.84
76687;BME280;65615;47.378;19.344;2024-01-30T12:46:48;102422.66;;;16.12;48.18
76687;BME280;65615;47.378;19.344;2024-01-30T12:50:51;102419.00;;;16.32;47.47
76687;BME280;65615;47.378;19.344;2024-01-30T12:54:55;102418.16;;;16.41;46.28
76687;BME280;65615;47.378;19.344;2024-01-30T12:58:59;102420.13;;;16.10;46.93
76687;BME280;65615;47.378;19.344;2024-01-30T13:03:02;102414.19;;;16.74;45.47
76687;BME280;65615;47.378;19.344;2024-01-30T13:07:06;102412.38;;;16.74;45.02
76687;BME280;65615;47.378;19.344;2024-01-30T13:11:09;102409.44;;;17.05;42.79
76687;BME280;65615;47.378;19.344;2024-01-30T13:15:25;102400.47;;;17.33;40.75
76687;BME280;65615;47.378;19.344;2024-01-30T13:19:29;102401.59;;;16.47;42.02
76687;BME280;65615;47.378;19.344;2024-01-30T13:23:32;102398.56;;;17.16;40.31
76687;BME280;65615;47.378;19.344;2024-01-30T13:27:36;102399.63;;;15.73;33.99
76687;BME280;65615;47.378;19.344;2024-01-30T13:31:41;102396.69;;;14.66;35.27
76687;BME280;65615;47.378;19.344;2024-01-30T13:35:44;102396.34;;;14.18;37.05
76687;BME280;65615;47.378;19.344;2024-01-30T13:39:47;102401.91;;;15.87;34.20
76687;BME280;65615;47.378;19.344;2024-01-30T13:43:51;102395.41;;;15.80;34.18
76687;BME280;65615;47.378;19.344;2024-01-30T13:47:54;102395.59;;;15.29;34.86
76687;BME280;65615;47.378;19.344;2024-01-30T13:51:58;102392.50;;;16.21;35.01
76687;BME280;65615;47.378;19.344;2024-01-30T13:56:02;102392.91;;;16.26;33.12
76687;BME280;65615;47.378;19.344;2024-01-30T14:00:05;102387.44;;;16.18;33.89
76687;BME280;65615;47.378;19.344;2024-01-30T14:04:13;102388.72;;;16.04;34.33
76687;BME280;65615;47.378;19.344;2024-01-30T14:08:18;102379.69;;;16.34;32.85
76687;BME280;65615;47.378;19.344;2024-01-30T14:12:24;102378.59;;;16.08;33.96
76687;BME280;65615;47.378;19.344;2024-01-30T14:16:29;102375.50;;;15.84;35.67
76687;BME280;65615;47.378;19.344;2024-01-30T14:20:32;102381.94;;;15.72;36.94
76687;BME280;65615;47.378;19.344;2024-01-30T14:24:35;102382.78;;;14.83;38.26
76687;BME280;65615;47.378;19.344;2024-01-30T14:28:39;102383.25;;;13.20;40.14
76687;BME280;65615;47.378;19.344;2024-01-30T14:32:42;102377.19;;;12.74;46.75
76687;BME280;65615;47.378;19.344;2024-01-30T14:36:47;102381.03;;;12.81;48.11
76687;BME280;65615;47.378;19.344;2024-01-30T14:40:50;102382.50;;;13.07;46.66
76687;BME280;65615;47.378;19.344;2024-01-30T14:44:53;102371.56;;;12.33;48.16
76687;BME280;65615;47.378;19.344;2024-01-30T14:48:56;102367.81;;;11.89;50.04
76687;BME280;65615;47.378;19.344;2024-01-30T14:53:00;102359.16;;;11.15;52.69
76687;BME280;65615;47.378;19.344;2024-01-30T14:57:04;102359.56;;;9.96;58.40
76687;BME280;65615;47.378;19.344;2024-01-30T15:01:07;102369.28;;;9.01;63.78
76687;BME280;65615;47.378;19.344;2024-01-30T15:05:10;102368.97;;;8.20;69.45
76687;BME280;65615;47.378;19.344;2024-01-30T15:09:14;102366.84;;;7.20;79.83
76687;BME280;65615;47.378;19.344;2024-01-30T15:13:19;102372.53;;;6.80;86.31
76687;BME280;65615;47.378;19.344;2024-01-30T15:17:22;102366.41;;;6.31;91.87
76687;BME280;65615;47.378;19.344;2024-01-30T15:21:25;102368.06;;;5.98;93.79
76687;BME280;65615;47.378;19.344;2024-01-30T15:25:30;102371.00;;;5.38;100.00
76687;BME280;65615;47.378;19.344;2024-01-30T15:29:33;102375.28;;;5.22;100.00
76687;BME280;65615;47.378;19.344;2024-01-30T15:33:36;102380.16;;;5.10;100.00
76687;BME280;65615;47.378;19.344;2024-01-30T15:37:39;102380.22;;;4.90;100.00
76687;BME280;65615;47.378;19.344;2024-01-30T15:41:42;102379.59;;;4.65;100.00
76687;BME280;65615;47.378;19.344;2024-01-30T15:45:45;102383.97;;;4.46;100.00
76687;BME280;65615;47.378;19.344;2024-01-30T15:49:49;102386.50;;;4.27;100.00
76687;BME280;65615;47.378;19.344;2024-01-30T15:53:52;102383.19;;;3.82;100.00
76687;BME280;65615;47.378;19.344;2024-01-30T15:57:54;102389.75;;;3.92;100.00
76687;BME280;65615;47.378;19.344;2024-01-30T16:01:58;102394.44;;;3.63;100.00
76687;BME280;65615;47.378;19.344;2024-01-30T16:06:01;102398.69;;;3.43;100.00
76687;BME280;65615;47.378;19.344;2024-01-30T16:10:05;102399.16;;;3.31;100.00
